sensor_id;sensor_type;location;lat;lon;timestamp;P1;durP1;ratioP1;P2;durP2;ratioP2
57071;SDS011;42956;51.366;11.298;2022-07-23T00:00:32;6.95;;;5.78;;
57071;SDS011;42956;51.366;11.298;2022-07-23T00:03:06;9.98;;;6.03;;
57071;SDS011;42956;51.366;11.298;2022-07-23T00:05:34;8.10;;;6.10;;
57071;SDS011;42956;51.366;11.298;2022-07-23T00:08:04;9.18;;;5.65;;
57071;SDS011;42956;51.366;11.298;2022-07-23T00:10:36;9.60;;;5.55;;
57071;SDS011;42956;51.366;11.298;2022-07-23T00:13:04;10.18;;;5.97;;
57071;SDS011;42956;51.366;11.298;2022-07-23T00:15:32;8.45;;;5.93;;
57071;SDS011;42956;51.366;11.298;2022-07-23T00:18:00;10.60;;;6.35;;
57071;SDS011;42956;51.366;11.298;2022-07-23T00:20:29;14.30;;;6.07;;
57071;SDS011;42956;51.366;11.298;2022-07-23T00:22:57;11.43;;;7.20;;
57071;SDS011;42956;51.366;11.298;2022-07-23T00:25:26;7.43;;;6.00;;
57071;SDS011;42956;51.366;11.298;2022-07-23T00:27:56;8.60;;;6.93;;
57071;SDS011;42956;51.366;11.298;2022-07-23T00:30:24;10.55;;;6.20;;
57071;SDS011;42956;51.366;11.298;2022-07-23T00:32:53;10.02;;;6.72;;
57071;SDS011;42956;51.366;11.298;2022-07-23T00:35:23;9.18;;;6.18;;
57071;SDS011;42956;51.366;11.298;2022-07-23T00:37:53;11.32;;;7.25;;
57071;SDS011;42956;51.366;11.298;2022-07-23T00:40:21;7.90;;;6.20;;
57071;SDS011;42956;51.366;11.298;2022-07-23T00:42:49;9.07;;;7.10;;
57071;SDS011;42956;51.366;11.298;2022-07-23T00:45:18;9.52;;;6.65;;
57071;SDS011;42956;51.366;11.298;2022-07-23T00:47:46;9.90;;;6.72;;
57071;SDS011;42956;51.366;11.298;2022-07-23T00:50:14;10.63;;;6.68;;
57071;SDS011;42956;51.366;11.298;2022-07-23T00:52:42;14.45;;;7.05;;
57071;SDS011;42956;51.366;11.298;2022-07-23T00:55:12;8.73;;;7.82;;
57071;SDS011;42956;51.366;11.298;2022-07-23T00:57:40;9.68;;;7.03;;
57071;SDS011;42956;51.366;11.298;2022-07-23T01:00:10;10.65;;;7.60;;
57071;SDS011;42956;51.366;11.298;2022-07-23T01:02:38;9.63;;;7.57;;
57071;SDS011;42956;51.366;11.298;2022-07-23T01:05:07;10.48;;;7.63;;
57071;SDS011;42956;51.366;11.298;2022-07-23T01:07:35;11.32;;;6.53;;
57071;SDS011;42956;51.366;11.298;2022-07-23T01:10:04;9.20;;;6.38;;
57071;SDS011;42956;51.366;11.298;2022-07-23T01:12:54;15.23;;;6.60;;
57071;SDS011;42956;51.366;11.298;2022-07-23T01:15:21;10.10;;;6.82;;
57071;SDS011;42956;51.366;11.298;2022-07-23T01:17:50;7.07;;;5.93;;
57071;SDS011;42956;51.366;11.298;2022-07-23T01:20:18;7.35;;;5.85;;
57071;SDS011;42956;51.366;11.298;2022-07-23T01:22:47;8.05;;;5.97;;
57071;SDS011;42956;51.366;11.298;2022-07-23T01:25:16;9.25;;;6.35;;
57071;SDS011;42956;51.366;11.298;2022-07-23T01:27:44;11.45;;;6.18;;
57071;SDS011;42956;51.366;11.298;2022-07-23T01:30:12;9.20;;;5.63;;
57071;SDS011;42956;51.366;11.298;2022-07-23T01:32:40;10.77;;;5.30;;
57071;SDS011;42956;51.366;11.298;2022-07-23T01:35:08;9.70;;;6.55;;
57071;SDS011;42956;51.366;11.298;2022-07-23T01:37:37;7.85;;;6.40;;
57071;SDS011;42956;51.366;11.298;2022-07-23T01:40:06;12.05;;;6.68;;
57071;SDS011;42956;51.366;11.298;2022-07-23T01:42:34;7.70;;;5.82;;
57071;SDS011;42956;51.366;11.298;2022-07-23T01:45:04;11.13;;;5.90;;
57071;SDS011;42956;51.366;11.298;2022-07-23T01:47:32;9.35;;;5.85;;
57071;SDS011;42956;51.366;11.298;2022-07-23T01:50:00;7.63;;;5.97;;
57071;SDS011;42956;51.366;11.298;2022-07-23T01:52:28;8.98;;;5.80;;
57071;SDS011;42956;51.366;11.298;2022-07-23T01:54:56;9.60;;;5.93;;
57071;SDS011;42956;51.366;11.298;2022-07-23T01:57:25;19.95;;;5.38;;
57071;SDS011;42956;51.366;11.298;2022-07-23T01:59:53;6.63;;;6.03;;
57071;SDS011;42956;51.366;11.298;2022-07-23T02:02:20;11.73;;;6.05;;
57071;SDS011;42956;51.366;11.298;2022-07-23T02:04:48;10.38;;;5.88;;
57071;SDS011;42956;51.366;11.298;2022-07-23T02:07:16;6.68;;;5.07;;
57071;SDS011;42956;51.366;11.298;2022-07-23T02:09:45;9.80;;;6.07;;
57071;SDS011;42956;51.366;11.298;2022-07-23T02:12:12;6.65;;;5.68;;
57071;SDS011;42956;51.366;11.298;2022-07-23T02:14:42;6.78;;;5.55;;
57071;SDS011;42956;51.366;11.298;2022-07-23T02:17:11;11.55;;;6.30;;
57071;SDS011;42956;51.366;11.298;2022-07-23T02:19:39;8.48;;;6.20;;
57071;SDS011;42956;51.366;11.298;2022-07-23T02:22:06;7.78;;;6.22;;
57071;SDS011;42956;51.366;11.298;2022-07-23T02:24:35;7.70;;;6.20;;
57071;SDS011;42956;51.366;11.298;2022-07-23T02:27:03;8.25;;;6.53;;
57071;SDS011;42956;51.366;11.298;2022-07-23T02:29:31;6.40;;;5.65;;
57071;SDS011;42956;51.366;11.298;2022-07-23T02:32:00;7.60;;;6.35;;
57071;SDS011;42956;51.366;11.298;2022-07-23T02:34:28;6.80;;;6.07;;
57071;SDS011;42956;51.366;11.298;2022-07-23T02:36:56;8.88;;;7.30;;
57071;SDS011;42956;51.366;11.298;2022-07-23T02:39:24;7.75;;;5.78;;
57071;SDS011;42956;51.366;11.298;2022-07-23T02:41:52;14.93;;;8.30;;
57071;SDS011;42956;51.366;11.298;2022-07-23T02:44:20;8.90;;;5.97;;
57071;SDS011;42956;51.366;11.298;2022-07-23T02:46:48;10.90;;;6.47;;
57071;SDS011;42956;51.366;11.298;2022-07-23T02:49:17;7.97;;;6.53;;
57071;SDS011;42956;51.366;11.298;2022-07-23T02:51:46;11.88;;;6.25;;
57071;SDS011;42956;51.366;11.298;2022-07-23T02:54:13;10.60;;;6.07;;
57071;SDS011;42956;51.366;11.298;2022-07-23T02:56:42;8.43;;;6.43;;
57071;SDS011;42956;51.366;11.298;2022-07-23T02:59:09;7.22;;;5.53;;
57071;SDS011;42956;51.366;11.298;2022-07-23T03:01:37;7.35;;;5.55;;
57071;SDS011;42956;51.366;11.298;2022-07-23T03:04:05;8.95;;;5.60;;
57071;SDS011;42956;51.366;11.298;2022-07-23T03:06:34;6.93;;;5.63;;
57071;SDS011;42956;51.366;11.298;2022-07-23T03:09:02;8.43;;;6.10;;
57071;SDS011;42956;51.366;11.298;2022-07-23T03:11:31;43.20;;;12.43;;
57071;SDS011;42956;51.366;11.298;2022-07-23T03:13:58;16.75;;;8.32;;
57071;SDS011;42956;51.366;11.298;2022-07-23T03:16:26;15.77;;;9.35;;
57071;SDS011;42956;51.366;11.298;2022-07-23T03:18:54;15.23;;;8.48;;
57071;SDS011;42956;51.366;11.298;2022-07-23T03:21:22;18.88;;;8.70;;
57071;SDS011;42956;51.366;11.298;2022-07-23T03:23:51;17.45;;;9.10;;
57071;SDS011;42956;51.366;11.298;2022-07-23T03:26:20;17.42;;;9.90;;
57071;SDS011;42956;51.366;11.298;2022-07-23T03:28:52;14.05;;;9.05;;
57071;SDS011;42956;51.366;11.298;2022-07-23T03:31:19;15.32;;;9.70;;
57071;SDS011;42956;51.366;11.298;2022-07-23T03:33:47;15.15;;;8.70;;
57071;SDS011;42956;51.366;11.298;2022-07-23T03:36:15;14.75;;;9.38;;
57071;SDS011;42956;51.366;11.298;2022-07-23T03:38:46;14.35;;;9.15;;
57071;SDS011;42956;51.366;11.298;2022-07-23T03:41:15;12.20;;;9.48;;
57071;SDS011;42956;51.366;11.298;2022-07-23T03:43:43;13.23;;;9.27;;
57071;SDS011;42956;51.366;11.298;2022-07-23T03:46:11;15.32;;;9.40;;
57071;SDS011;42956;51.366;11.298;2022-07-23T03:48:39;17.15;;;10.05;;
57071;SDS011;42956;51.366;11.298;2022-07-23T03:51:07;17.52;;;9.73;;
57071;SDS011;42956;51.366;11.298;2022-07-23T03:53:35;15.35;;;9.70;;
57071;SDS011;42956;51.366;11.298;2022-07-23T03:56:04;14.73;;;9.07;;
57071;SDS011;42956;51.366;11.298;2022-07-23T03:58:33;12.93;;;9.35;;
57071;SDS011;42956;51.366;11.298;2022-07-23T04:01:01;14.63;;;9.77;;
57071;SDS011;42956;51.366;11.298;2022-07-23T04:03:29;15.38;;;9.80;;
57071;SDS011;42956;51.366;11.298;2022-07-23T04:05:57;13.32;;;10.43;;
57071;SDS011;42956;51.366;11.298;2022-07-23T04:08:25;13.48;;;8.60;;
57071;SDS011;42956;51.366;11.298;2022-07-23T04:10:52;14.60;;;10.10;;
57071;SDS011;42956;51.366;11.298;2022-07-23T04:13:20;14.38;;;9.90;;
57071;SDS011;42956;51.366;11.298;2022-07-23T04:15:50;12.82;;;9.98;;
57071;SDS011;42956;51.366;11.298;2022-07-23T04:18:18;10.82;;;9.73;;
57071;SDS011;42956;51.366;11.298;2022-07-23T04:20:48;12.50;;;10.13;;
57071;SDS011;42956;51.366;11.298;2022-07-23T04:23:16;11.95;;;8.32;;
57071;SDS011;42956;51.366;11.298;2022-07-23T04:25:46;21.10;;;9.15;;
57071;SDS011;42956;51.366;11.298;2022-07-23T04:28:13;13.55;;;9.48;;
57071;SDS011;42956;51.366;11.298;2022-07-23T04:30:41;13.27;;;9.10;;
57071;SDS011;42956;51.366;11.298;2022-07-23T04:33:11;11.15;;;8.82;;
57071;SDS011;42956;51.366;11.298;2022-07-23T04:35:38;12.57;;;9.35;;
57071;SDS011;42956;51.366;11.298;2022-07-23T04:38:06;13.80;;;9.48;;
57071;SDS011;42956;51.366;11.298;2022-07-23T04:40:34;13.40;;;9.85;;
57071;SDS011;42956;51.366;11.298;2022-07-23T04:43:04;12.57;;;9.73;;
57071;SDS011;42956;51.366;11.298;2022-07-23T04:45:32;13.93;;;10.13;;
57071;SDS011;42956;51.366;11.298;2022-07-23T04:48:00;13.98;;;10.30;;
57071;SDS011;42956;51.366;11.298;2022-07-23T04:50:30;16.05;;;9.40;;
57071;SDS011;42956;51.366;11.298;2022-07-23T04:52:57;13.02;;;9.07;;
57071;SDS011;42956;51.366;11.298;2022-07-23T04:55:26;13.68;;;10.23;;
57071;SDS011;42956;51.366;11.298;2022-07-23T04:57:54;12.93;;;9.95;;
57071;SDS011;42956;51.366;11.298;2022-07-23T05:00:22;12.65;;;10.15;;
57071;SDS011;42956;51.366;11.298;2022-07-23T05:02:50;12.93;;;10.98;;
57071;SDS011;42956;51.366;11.298;2022-07-23T05:05:18;15.73;;;11.10;;
57071;SDS011;42956;51.366;11.298;2022-07-23T05:07:47;16.02;;;11.63;;
57071;SDS011;42956;51.366;11.298;2022-07-23T05:10:15;14.18;;;10.63;;
57071;SDS011;42956;51.366;11.298;2022-07-23T05:12:43;16.45;;;10.32;;
57071;SDS011;42956;51.366;11.298;2022-07-23T05:15:11;12.63;;;9.70;;
57071;SDS011;42956;51.366;11.298;2022-07-23T05:17:39;11.85;;;9.15;;
57071;SDS011;42956;51.366;11.298;2022-07-23T05:20:07;15.77;;;11.50;;
57071;SDS011;42956;51.366;11.298;2022-07-23T05:22:35;18.83;;;11.32;;
57071;SDS011;42956;51.366;11.298;2022-07-23T05:25:05;14.95;;;10.88;;
57071;SDS011;42956;51.366;11.298;2022-07-23T05:27:33;15.65;;;10.38;;
57071;SDS011;42956;51.366;11.298;2022-07-23T05:30:01;12.50;;;9.13;;
57071;SDS011;42956;51.366;11.298;2022-07-23T05:32:30;15.20;;;10.15;;
57071;SDS011;42956;51.366;11.298;2022-07-23T05:34:58;12.63;;;10.60;;
57071;SDS011;42956;51.366;11.298;2022-07-23T05:37:26;16.80;;;10.02;;
57071;SDS011;42956;51.366;11.298;2022-07-23T05:39:54;16.48;;;10.25;;
57071;SDS011;42956;51.366;11.298;2022-07-23T05:42:23;13.38;;;10.02;;
57071;SDS011;42956;51.366;11.298;2022-07-23T05:44:51;14.68;;;10.90;;
57071;SDS011;42956;51.366;11.298;2022-07-23T05:47:19;16.58;;;10.25;;
57071;SDS011;42956;51.366;11.298;2022-07-23T05:49:47;16.73;;;10.48;;
57071;SDS011;42956;51.366;11.298;2022-07-23T05:52:15;17.23;;;11.88;;
57071;SDS011;42956;51.366;11.298;2022-07-23T05:54:43;13.57;;;10.10;;
57071;SDS011;42956;51.366;11.298;2022-07-23T05:57:10;13.52;;;11.18;;
57071;SDS011;42956;51.366;11.298;2022-07-23T05:59:39;15.40;;;11.02;;
57071;SDS011;42956;51.366;11.298;2022-07-23T06:02:07;18.77;;;11.30;;
57071;SDS011;42956;51.366;11.298;2022-07-23T06:04:35;14.00;;;9.93;;
57071;SDS011;42956;51.366;11.298;2022-07-23T06:07:03;14.48;;;10.52;;
57071;SDS011;42956;51.366;11.298;2022-07-23T06:09:31;14.65;;;10.98;;
57071;SDS011;42956;51.366;11.298;2022-07-23T06:11:59;14.85;;;11.60;;
57071;SDS011;42956;51.366;11.298;2022-07-23T06:14:27;16.63;;;11.10;;
57071;SDS011;42956;51.366;11.298;2022-07-23T06:16:56;12.93;;;10.95;;
57071;SDS011;42956;51.366;11.298;2022-07-23T06:19:25;13.32;;;11.02;;
57071;SDS011;42956;51.366;11.298;2022-07-23T06:21:54;16.98;;;11.55;;
57071;SDS011;42956;51.366;11.298;2022-07-23T06:24:22;15.10;;;10.90;;
57071;SDS011;42956;51.366;11.298;2022-07-23T06:26:50;16.92;;;11.02;;
57071;SDS011;42956;51.366;11.298;2022-07-23T06:29:18;15.43;;;11.70;;
57071;SDS011;42956;51.366;11.298;2022-07-23T06:31:45;17.38;;;10.68;;
57071;SDS011;42956;51.366;11.298;2022-07-23T06:34:15;12.77;;;9.60;;
57071;SDS011;42956;51.366;11.298;2022-07-23T06:36:43;11.48;;;9.02;;
57071;SDS011;42956;51.366;11.298;2022-07-23T06:39:11;19.90;;;10.98;;
57071;SDS011;42956;51.366;11.298;2022-07-23T06:41:39;13.90;;;10.95;;
57071;SDS011;42956;51.366;11.298;2022-07-23T06:44:07;15.52;;;11.63;;
57071;SDS011;42956;51.366;11.298;2022-07-23T06:46:37;23.48;;;11.05;;
57071;SDS011;42956;51.366;11.298;2022-07-23T06:49:05;16.88;;;11.38;;
57071;SDS011;42956;51.366;11.298;2022-07-23T06:51:34;14.77;;;11.02;;
57071;SDS011;42956;51.366;11.298;2022-07-23T06:54:03;13.02;;;10.43;;
57071;SDS011;42956;51.366;11.298;2022-07-23T06:56:31;13.35;;;10.77;;
57071;SDS011;42956;51.366;11.298;2022-07-23T06:58:59;16.77;;;10.85;;
57071;SDS011;42956;51.366;11.298;2022-07-23T07:01:28;12.43;;;10.43;;
57071;SDS011;42956;51.366;11.298;2022-07-23T07:03:56;15.30;;;11.95;;
57071;SDS011;42956;51.366;11.298;2022-07-23T07:06:24;12.80;;;10.70;;
57071;SDS011;42956;51.366;11.298;2022-07-23T07:08:53;14.82;;;11.30;;
57071;SDS011;42956;51.366;11.298;2022-07-23T07:11:22;16.27;;;11.55;;
57071;SDS011;42956;51.366;11.298;2022-07-23T07:13:51;12.85;;;10.77;;
57071;SDS011;42956;51.366;11.298;2022-07-23T07:16:19;13.23;;;11.32;;
57071;SDS011;42956;51.366;11.298;2022-07-23T07:18:47;17.33;;;12.73;;
57071;SDS011;42956;51.366;11.298;2022-07-23T07:21:15;14.88;;;12.30;;
57071;SDS011;42956;51.366;11.298;2022-07-23T07:23:43;16.65;;;10.82;;
57071;SDS011;42956;51.366;11.298;2022-07-23T07:26:12;13.93;;;11.52;;
57071;SDS011;42956;51.366;11.298;2022-07-23T07:28:40;18.52;;;12.68;;
57071;SDS011;42956;51.366;11.298;2022-07-23T07:31:08;17.70;;;11.80;;
57071;SDS011;42956;51.366;11.298;2022-07-23T07:33:36;15.38;;;12.48;;
57071;SDS011;42956;51.366;11.298;2022-07-23T07:36:04;17.73;;;12.50;;
57071;SDS011;42956;51.366;11.298;2022-07-23T07:38:32;15.00;;;11.00;;
57071;SDS011;42956;51.366;11.298;2022-07-23T07:41:00;15.00;;;11.75;;
57071;SDS011;42956;51.366;11.298;2022-07-23T07:43:29;16.52;;;10.80;;
57071;SDS011;42956;51.366;11.298;2022-07-23T07:45:57;12.85;;;10.88;;
57071;SDS011;42956;51.366;11.298;2022-07-23T07:48:25;13.65;;;11.45;;
57071;SDS011;42956;51.366;11.298;2022-07-23T07:50:53;14.63;;;11.48;;
57071;SDS011;42956;51.366;11.298;2022-07-23T07:53:21;12.88;;;10.43;;
57071;SDS011;42956;51.366;11.298;2022-07-23T07:55:51;17.13;;;11.90;;
57071;SDS011;42956;51.366;11.298;2022-07-23T07:58:19;15.00;;;12.38;;
57071;SDS011;42956;51.366;11.298;2022-07-23T08:00:48;17.10;;;12.57;;
57071;SDS011;42956;51.366;11.298;2022-07-23T08:03:16;14.50;;;12.13;;
57071;SDS011;42956;51.366;11.298;2022-07-23T08:05:44;13.70;;;11.88;;
57071;SDS011;42956;51.366;11.298;2022-07-23T08:08:12;15.48;;;11.23;;
57071;SDS011;42956;51.366;11.298;2022-07-23T08:10:42;13.75;;;11.45;;
57071;SDS011;42956;51.366;11.298;2022-07-23T08:13:12;15.48;;;11.23;;
57071;SDS011;42956;51.366;11.298;2022-07-23T08:15:40;15.45;;;10.70;;
57071;SDS011;42956;51.366;11.298;2022-07-23T08:18:09;15.32;;;10.82;;
57071;SDS011;42956;51.366;11.298;2022-07-23T08:20:38;14.15;;;11.30;;
57071;SDS011;42956;51.366;11.298;2022-07-23T08:23:07;15.13;;;10.25;;
57071;SDS011;42956;51.366;11.298;2022-07-23T08:25:36;13.63;;;10.38;;
57071;SDS011;42956;51.366;11.298;2022-07-23T08:28:04;13.52;;;10.98;;
57071;SDS011;42956;51.366;11.298;2022-07-23T08:30:33;14.85;;;10.43;;
57071;SDS011;42956;51.366;11.298;2022-07-23T08:33:02;14.68;;;9.95;;
57071;SDS011;42956;51.366;11.298;2022-07-23T08:35:32;11.85;;;9.85;;
57071;SDS011;42956;51.366;11.298;2022-07-23T08:38:00;12.77;;;9.77;;
57071;SDS011;42956;51.366;11.298;2022-07-23T08:40:29;11.10;;;9.27;;
57071;SDS011;42956;51.366;11.298;2022-07-23T08:42:57;14.55;;;10.35;;
57071;SDS011;42956;51.366;11.298;2022-07-23T08:45:26;11.77;;;10.00;;
57071;SDS011;42956;51.366;11.298;2022-07-23T08:47:55;11.43;;;9.77;;
57071;SDS011;42956;51.366;11.298;2022-07-23T08:50:24;9.95;;;8.15;;
57071;SDS011;42956;51.366;11.298;2022-07-23T08:52:55;11.93;;;8.60;;
57071;SDS011;42956;51.366;11.298;2022-07-23T08:55:25;12.38;;;10.73;;
57071;SDS011;42956;51.366;11.298;2022-07-23T08:57:53;14.95;;;10.25;;
57071;SDS011;42956;51.366;11.298;2022-07-23T09:00:21;11.15;;;9.75;;
57071;SDS011;42956;51.366;11.298;2022-07-23T09:02:50;13.60;;;9.98;;
57071;SDS011;42956;51.366;11.298;2022-07-23T09:05:19;11.48;;;9.75;;
57071;SDS011;42956;51.366;11.298;2022-07-23T09:08:07;13.57;;;10.30;;
57071;SDS011;42956;51.366;11.298;2022-07-23T09:10:42;13.07;;;10.05;;
57071;SDS011;42956;51.366;11.298;2022-07-23T09:13:22;11.43;;;9.68;;
57071;SDS011;42956;51.366;11.298;2022-07-23T09:15:51;12.32;;;9.95;;
57071;SDS011;42956;51.366;11.298;2022-07-23T09:18:27;12.15;;;10.32;;
57071;SDS011;42956;51.366;11.298;2022-07-23T09:21:04;17.15;;;10.90;;
57071;SDS011;42956;51.366;11.298;2022-07-23T09:23:40;14.98;;;11.32;;
57071;SDS011;42956;51.366;11.298;2022-07-23T09:29:05;13.30;;;11.25;;
57071;SDS011;42956;51.366;11.298;2022-07-23T09:31:34;14.70;;;10.85;;
57071;SDS011;42956;51.366;11.298;2022-07-23T09:34:10;18.25;;;10.15;;
57071;SDS011;42956;51.366;11.298;2022-07-23T09:36:38;14.73;;;11.05;;
57071;SDS011;42956;51.366;11.298;2022-07-23T09:39:08;12.45;;;10.93;;
57071;SDS011;42956;51.366;11.298;2022-07-23T09:41:36;12.85;;;10.85;;
57071;SDS011;42956;51.366;11.298;2022-07-23T09:44:08;16.13;;;10.88;;
57071;SDS011;42956;51.366;11.298;2022-07-23T09:46:37;12.40;;;10.27;;
57071;SDS011;42956;51.366;11.298;2022-07-23T09:51:53;17.05;;;12.40;;
57071;SDS011;42956;51.366;11.298;2022-07-23T09:54:24;15.18;;;12.73;;
57071;SDS011;42956;51.366;11.298;2022-07-23T09:56:53;20.25;;;13.38;;
57071;SDS011;42956;51.366;11.298;2022-07-23T09:59:23;16.27;;;13.00;;
57071;SDS011;42956;51.366;11.298;2022-07-23T10:01:51;16.48;;;11.75;;
57071;SDS011;42956;51.366;11.298;2022-07-23T10:04:21;16.10;;;12.98;;
57071;SDS011;42956;51.366;11.298;2022-07-23T10:06:49;15.30;;;12.27;;
57071;SDS011;42956;51.366;11.298;2022-07-23T10:09:21;15.82;;;12.80;;
57071;SDS011;42956;51.366;11.298;2022-07-23T10:11:51;18.13;;;13.95;;
57071;SDS011;42956;51.366;11.298;2022-07-23T10:14:20;13.90;;;12.30;;
57071;SDS011;42956;51.366;11.298;2022-07-23T10:16:50;14.40;;;12.25;;
57071;SDS011;42956;51.366;11.298;2022-07-23T10:19:18;15.13;;;11.98;;
57071;SDS011;42956;51.366;11.298;2022-07-23T10:21:46;14.85;;;12.73;;
57071;SDS011;42956;51.366;11.298;2022-07-23T10:24:17;15.98;;;13.15;;
57071;SDS011;42956;51.366;11.298;2022-07-23T10:29:20;16.05;;;13.00;;
57071;SDS011;42956;51.366;11.298;2022-07-23T10:31:52;15.18;;;11.73;;
57071;SDS011;42956;51.366;11.298;2022-07-23T10:34:32;14.27;;;12.77;;
57071;SDS011;42956;51.366;11.298;2022-07-23T10:37:05;19.75;;;13.18;;
57071;SDS011;42956;51.366;11.298;2022-07-23T10:39:35;19.08;;;13.55;;
57071;SDS011;42956;51.366;11.298;2022-07-23T10:42:10;16.45;;;11.85;;
57071;SDS011;42956;51.366;11.298;2022-07-23T10:44:41;14.43;;;12.40;;
57071;SDS011;42956;51.366;11.298;2022-07-23T10:47:10;13.25;;;11.50;;
57071;SDS011;42956;51.366;11.298;2022-07-23T10:49:52;12.57;;;11.15;;
57071;SDS011;42956;51.366;11.298;2022-07-23T10:52:22;14.77;;;12.85;;
57071;SDS011;42956;51.366;11.298;2022-07-23T10:54:51;15.85;;;13.23;;
57071;SDS011;42956;51.366;11.298;2022-07-23T10:57:20;22.88;;;12.15;;
57071;SDS011;42956;51.366;11.298;2022-07-23T11:02:37;12.43;;;11.13;;
57071;SDS011;42956;51.366;11.298;2022-07-23T11:05:06;16.80;;;11.77;;
57071;SDS011;42956;51.366;11.298;2022-07-23T11:07:34;12.07;;;10.35;;
57071;SDS011;42956;51.366;11.298;2022-07-23T11:10:02;13.35;;;11.13;;
57071;SDS011;42956;51.366;11.298;2022-07-23T11:12:34;12.95;;;10.25;;
57071;SDS011;42956;51.366;11.298;2022-07-23T11:15:06;15.00;;;10.98;;
57071;SDS011;42956;51.366;11.298;2022-07-23T11:17:35;12.00;;;9.77;;
57071;SDS011;42956;51.366;11.298;2022-07-23T11:20:22;13.60;;;11.10;;
57071;SDS011;42956;51.366;11.298;2022-07-23T11:22:51;12.98;;;10.85;;
57071;SDS011;42956;51.366;11.298;2022-07-23T11:28:14;14.88;;;9.95;;
57071;SDS011;42956;51.366;11.298;2022-07-23T11:30:42;11.55;;;10.00;;
57071;SDS011;42956;51.366;11.298;2022-07-23T11:33:19;10.98;;;9.88;;
57071;SDS011;42956;51.366;11.298;2022-07-23T11:35:49;10.80;;;9.55;;
57071;SDS011;42956;51.366;11.298;2022-07-23T11:38:18;12.35;;;8.73;;
57071;SDS011;42956;51.366;11.298;2022-07-23T11:40:46;10.65;;;9.55;;
57071;SDS011;42956;51.366;11.298;2022-07-23T11:43:15;12.55;;;9.55;;
57071;SDS011;42956;51.366;11.298;2022-07-23T11:45:43;12.45;;;9.07;;
57071;SDS011;42956;51.366;11.298;2022-07-23T11:48:15;11.90;;;9.63;;
57071;SDS011;42956;51.366;11.298;2022-07-23T11:50:44;8.27;;;7.45;;
57071;SDS011;42956;51.366;11.298;2022-07-23T11:53:15;9.10;;;8.20;;
57071;SDS011;42956;51.366;11.298;2022-07-23T11:55:48;12.52;;;9.35;;
57071;SDS011;42956;51.366;11.298;2022-07-23T11:58:16;9.57;;;8.65;;
57071;SDS011;42956;51.366;11.298;2022-07-23T12:00:45;10.82;;;9.73;;
57071;SDS011;42956;51.366;11.298;2022-07-23T12:03:13;14.48;;;9.85;;
57071;SDS011;42956;51.366;11.298;2022-07-23T12:05:41;10.57;;;9.48;;
57071;SDS011;42956;51.366;11.298;2022-07-23T12:08:09;11.77;;;9.10;;
57071;SDS011;42956;51.366;11.298;2022-07-23T12:10:39;10.05;;;8.40;;
57071;SDS011;42956;51.366;11.298;2022-07-23T12:13:09;14.02;;;9.13;;
57071;SDS011;42956;51.366;11.298;2022-07-23T12:15:38;10.27;;;9.00;;
57071;SDS011;42956;51.366;11.298;2022-07-23T12:18:07;10.70;;;8.18;;
57071;SDS011;42956;51.366;11.298;2022-07-23T12:20:36;12.10;;;7.53;;
57071;SDS011;42956;51.366;11.298;2022-07-23T12:23:05;10.07;;;7.57;;
57071;SDS011;42956;51.366;11.298;2022-07-23T12:25:34;8.90;;;8.00;;
57071;SDS011;42956;51.366;11.298;2022-07-23T12:28:04;7.75;;;6.88;;
57071;SDS011;42956;51.366;11.298;2022-07-23T12:30:34;7.80;;;7.00;;
57071;SDS011;42956;51.366;11.298;2022-07-23T12:33:02;9.15;;;6.97;;
57071;SDS011;42956;51.366;11.298;2022-07-23T12:35:32;7.22;;;6.53;;
57071;SDS011;42956;51.366;11.298;2022-07-23T12:38:00;8.90;;;6.50;;
57071;SDS011;42956;51.366;11.298;2022-07-23T12:40:31;9.75;;;7.00;;
57071;SDS011;42956;51.366;11.298;2022-07-23T12:43:00;9.70;;;7.60;;
57071;SDS011;42956;51.366;11.298;2022-07-23T12:45:42;8.02;;;7.22;;
57071;SDS011;42956;51.366;11.298;2022-07-23T12:48:15;10.10;;;7.57;;
57071;SDS011;42956;51.366;11.298;2022-07-23T12:50:49;9.20;;;6.85;;
57071;SDS011;42956;51.366;11.298;2022-07-23T12:53:17;8.57;;;7.22;;
57071;SDS011;42956;51.366;11.298;2022-07-23T12:55:51;7.05;;;6.25;;
57071;SDS011;42956;51.366;11.298;2022-07-23T12:58:43;7.53;;;5.65;;
57071;SDS011;42956;51.366;11.298;2022-07-23T13:01:25;9.50;;;6.65;;
57071;SDS011;42956;51.366;11.298;2022-07-23T13:04:00;8.77;;;7.88;;
57071;SDS011;42956;51.366;11.298;2022-07-23T13:06:37;8.57;;;7.28;;
57071;SDS011;42956;51.366;11.298;2022-07-23T13:09:06;10.48;;;6.63;;
57071;SDS011;42956;51.366;11.298;2022-07-23T13:11:34;7.28;;;5.97;;
57071;SDS011;42956;51.366;11.298;2022-07-23T13:14:03;8.23;;;6.57;;
57071;SDS011;42956;51.366;11.298;2022-07-23T13:16:36;7.07;;;6.30;;
57071;SDS011;42956;51.366;11.298;2022-07-23T13:19:04;8.43;;;5.53;;
57071;SDS011;42956;51.366;11.298;2022-07-23T13:21:37;8.65;;;6.40;;
57071;SDS011;42956;51.366;11.298;2022-07-23T13:24:06;8.02;;;5.80;;
57071;SDS011;42956;51.366;11.298;2022-07-23T13:26:54;5.78;;;4.97;;
57071;SDS011;42956;51.366;11.298;2022-07-23T13:29:22;5.75;;;4.72;;
57071;SDS011;42956;51.366;11.298;2022-07-23T13:31:53;11.38;;;5.80;;
57071;SDS011;42956;51.366;11.298;2022-07-23T13:34:22;7.38;;;6.32;;
57071;SDS011;42956;51.366;11.298;2022-07-23T13:36:49;5.45;;;4.95;;
57071;SDS011;42956;51.366;11.298;2022-07-23T13:39:17;5.93;;;4.90;;
57071;SDS011;42956;51.366;11.298;2022-07-23T13:41:45;6.80;;;5.13;;
57071;SDS011;42956;51.366;11.298;2022-07-23T13:47:46;6.82;;;4.70;;
57071;SDS011;42956;51.366;11.298;2022-07-23T13:50:14;5.88;;;5.22;;
57071;SDS011;42956;51.366;11.298;2022-07-23T13:52:48;5.32;;;4.80;;
57071;SDS011;42956;51.366;11.298;2022-07-23T13:55:16;7.22;;;5.10;;
57071;SDS011;42956;51.366;11.298;2022-07-23T13:57:44;6.93;;;4.70;;
57071;SDS011;42956;51.366;11.298;2022-07-23T14:00:12;4.20;;;3.70;;
57071;SDS011;42956;51.366;11.298;2022-07-23T14:03:01;6.18;;;3.67;;
57071;SDS011;42956;51.366;11.298;2022-07-23T14:05:30;4.80;;;3.10;;
57071;SDS011;42956;51.366;11.298;2022-07-23T14:07:59;3.97;;;3.60;;
57071;SDS011;42956;51.366;11.298;2022-07-23T14:10:27;4.95;;;3.20;;
57071;SDS011;42956;51.366;11.298;2022-07-23T14:12:55;4.78;;;3.20;;
57071;SDS011;42956;51.366;11.298;2022-07-23T14:15:24;4.65;;;3.08;;
57071;SDS011;42956;51.366;11.298;2022-07-23T14:17:56;3.58;;;2.75;;
57071;SDS011;42956;51.366;11.298;2022-07-23T14:20:26;3.25;;;2.92;;
57071;SDS011;42956;51.366;11.298;2022-07-23T14:22:54;3.10;;;2.78;;
57071;SDS011;42956;51.366;11.298;2022-07-23T14:25:27;5.35;;;3.15;;
57071;SDS011;42956;51.366;11.298;2022-07-23T14:27:55;4.20;;;3.20;;
57071;SDS011;42956;51.366;11.298;2022-07-23T14:30:23;6.90;;;3.28;;
57071;SDS011;42956;51.366;11.298;2022-07-23T14:32:59;4.78;;;3.33;;
57071;SDS011;42956;51.366;11.298;2022-07-23T14:35:28;6.78;;;4.38;;
57071;SDS011;42956;51.366;11.298;2022-07-23T14:37:57;3.95;;;3.00;;
57071;SDS011;42956;51.366;11.298;2022-07-23T14:40:25;7.55;;;2.53;;
57071;SDS011;42956;51.366;11.298;2022-07-23T14:42:54;2.67;;;2.15;;
57071;SDS011;42956;51.366;11.298;2022-07-23T14:45:22;4.57;;;3.45;;
57071;SDS011;42956;51.366;11.298;2022-07-23T14:47:50;3.40;;;2.80;;
57071;SDS011;42956;51.366;11.298;2022-07-23T14:50:18;3.55;;;2.50;;